createdAt,value
2022-09-15T00:00:29.207Z,27.37
2022-09-15T00:05:23.382Z,27.22
2022-09-15T00:10:17.753Z,27.23
2022-09-15T00:15:15.605Z,27.32
2022-09-15T00:20:10.803Z,27.33
2022-09-15T00:25:04.503Z,27.31
2022-09-15T00:29:58.260Z,27.35
2022-09-15T00:34:52.056Z,27.37
2022-09-15T00:39:46.903Z,27.30
2022-09-15T00:44:58.540Z,27.24
2022-09-15T00:49:58.975Z,27.28
2022-09-15T00:54:58.905Z,27.11
2022-09-15T00:59:56.693Z,27.30
2022-09-15T01:04:58.491Z,27.19
2022-09-15T01:09:56.581Z,27.15
2022-09-15T01:14:49.679Z,27.26
2022-09-15T01:19:42.652Z,27.26
2022-09-15T01:24:54.292Z,27.24
2022-09-15T01:30:03.354Z,27.30
2022-09-15T01:35:08.087Z,27.22
2022-09-15T01:40:02.721Z,27.24
2022-09-15T01:45:03.512Z,27.32
2022-09-15T01:50:03.676Z,27.21
2022-09-15T01:55:00.929Z,27.20
2022-09-15T01:59:57.008Z,27.32
2022-09-15T02:04:59.285Z,27.33
2022-09-15T02:10:03.737Z,27.12
2022-09-15T02:15:06.360Z,27.33
2022-09-15T02:20:12.184Z,27.32
2022-09-15T02:25:17.263Z,27.33
2022-09-15T02:30:14.683Z,27.27
2022-09-15T02:35:11.927Z,27.20
2022-09-15T02:40:06.727Z,27.32
2022-09-15T02:45:01.456Z,27.18
2022-09-15T02:49:54.947Z,27.31
2022-09-15T02:54:48.467Z,27.31
2022-09-15T03:00:13.416Z,27.30
2022-09-15T03:05:07.714Z,27.31
2022-09-15T03:10:01.925Z,27.31
2022-09-15T03:14:56.377Z,27.19
2022-09-15T03:19:51.257Z,27.28
2022-09-15T03:24:45.908Z,27.18
2022-09-15T03:29:40.069Z,27.26
2022-09-15T03:34:33.243Z,27.28
2022-09-15T03:39:27.062Z,27.28
2022-09-15T03:44:24.198Z,27.24
2022-09-15T03:49:17.653Z,27.24
2022-09-15T03:54:11.700Z,27.31
2022-09-15T03:59:06.646Z,27.19
2022-09-15T04:04:01.350Z,27.24
2022-09-15T04:08:55.668Z,27.29
2022-09-15T04:13:49.181Z,27.28
2022-09-15T04:18:43.208Z,27.24
2022-09-15T04:23:37.678Z,27.28
2022-09-15T04:28:34.137Z,27.18
2022-09-15T04:33:28.053Z,27.28
2022-09-15T04:38:21.236Z,27.28
2022-09-15T04:43:14.680Z,27.19
2022-09-15T04:48:08.531Z,27.20
2022-09-15T04:53:01.986Z,27.27
2022-09-15T04:57:55.992Z,27.27
2022-09-15T05:02:49.621Z,27.24
2022-09-15T05:07:43.988Z,27.17
2022-09-15T05:12:37.452Z,27.22
2022-09-15T05:17:33.593Z,27.23
2022-09-15T05:22:28.584Z,27.17
2022-09-15T05:27:21.936Z,27.13
2022-09-15T05:32:15.197Z,27.15
2022-09-15T05:37:08.885Z,27.13
2022-09-15T05:42:01.651Z,27.05
2022-09-15T05:46:54.859Z,27.22
2022-09-15T05:51:48.760Z,27.13
2022-09-15T05:56:42.558Z,26.95
2022-09-15T06:01:36.873Z,27.09
2022-09-15T06:06:32.400Z,27.07
2022-09-15T06:11:27.473Z,27.21
2022-09-15T06:16:30.152Z,27.12
2022-09-15T06:21:26.517Z,26.95
2022-09-15T06:26:20.416Z,27.11
2022-09-15T06:31:15.024Z,27.07
2022-09-15T06:36:10.645Z,27.01
2022-09-15T06:41:04.673Z,26.91
2022-09-15T06:46:04.685Z,27.03
2022-09-15T06:50:58.133Z,26.93
2022-09-15T06:55:51.765Z,26.99
2022-09-15T07:00:45.205Z,26.94
2022-09-15T07:05:38.735Z,26.89
2022-09-15T07:10:32.979Z,26.90
2022-09-15T07:15:28.343Z,26.90
2022-09-15T07:20:22.544Z,26.80
2022-09-15T07:25:16.491Z,26.91
2022-09-15T07:30:11.997Z,26.81
2022-09-15T07:35:06.355Z,26.92
2022-09-15T07:40:00.914Z,26.85
2022-09-15T07:45:00.821Z,26.77
2022-09-15T07:49:54.807Z,26.71
2022-09-15T07:54:49.274Z,26.89
2022-09-15T07:59:43.564Z,26.92
2022-09-15T08:04:37.300Z,26.83
2022-09-15T08:09:31.381Z,26.91
2022-09-15T08:14:25.677Z,26.78
2022-09-15T08:19:18.827Z,26.98
2022-09-15T08:24:13.895Z,26.91
2022-09-15T08:29:08.407Z,27.04
2022-09-15T08:34:04.924Z,26.89
2022-09-15T08:38:59.348Z,27.11
2022-09-15T08:44:08.773Z,27.02
2022-09-15T08:49:26.862Z,27.12
2022-09-15T08:54:31.763Z,27.16
2022-09-15T08:59:32.770Z,26.98
2022-09-15T09:05:06.013Z,27.19
2022-09-15T09:09:59.028Z,27.21
2022-09-15T09:15:35.109Z,27.17
2022-09-15T09:20:30.003Z,27.20
2022-09-15T09:25:28.313Z,27.19
2022-09-15T09:30:25.342Z,27.22
2022-09-15T09:35:35.158Z,27.22
2022-09-15T09:40:28.795Z,27.22
2022-09-15T09:45:23.289Z,27.10
2022-09-15T09:50:36.182Z,27.17
2022-09-15T09:55:29.889Z,27.16
2022-09-15T10:00:41.213Z,27.18
2022-09-15T10:05:34.278Z,27.19
2022-09-15T10:10:33.144Z,27.20
2022-09-15T10:15:29.527Z,27.18
2022-09-15T10:20:41.432Z,27.19
2022-09-15T10:25:58.507Z,27.34
2022-09-15T10:31:07.251Z,27.37
2022-09-15T10:36:05.551Z,27.39
2022-09-15T10:41:13.269Z,27.43
2022-09-15T10:46:19.204Z,27.37
2022-09-15T10:51:27.800Z,27.36
2022-09-15T10:56:26.676Z,27.48
2022-09-15T11:01:30.819Z,27.50
2022-09-15T11:06:43.257Z,27.38
2022-09-15T11:11:43.704Z,27.18
2022-09-15T11:17:01.882Z,27.16
2022-09-15T11:22:06.616Z,27.42
2022-09-15T11:27:23.818Z,27.48
2022-09-15T11:32:32.197Z,27.49
2022-09-15T11:37:52.186Z,27.46
2022-09-15T11:43:17.544Z,27.55
2022-09-15T11:48:32.212Z,27.36
2022-09-15T11:53:52.140Z,27.06
2022-09-15T11:59:04.268Z,26.80
2022-09-15T12:04:08.395Z,26.59
2022-09-15T12:09:07.161Z,26.37
2022-09-15T12:14:02.094Z,26.31
2022-09-15T12:19:25.973Z,25.90
2022-09-15T12:24:36.343Z,26.09
2022-09-15T12:29:41.791Z,25.94
2022-09-15T12:34:39.349Z,25.91
2022-09-15T12:39:49.641Z,25.91
2022-09-15T12:44:59.427Z,25.70
2022-09-15T12:49:58.010Z,25.97
2022-09-15T12:54:54.908Z,26.11
2022-09-15T12:59:48.887Z,26.04
2022-09-15T13:04:41.784Z,26.17
2022-09-15T13:09:45.661Z,26.17
2022-09-15T13:14:48.982Z,26.32
2022-09-15T13:19:47.193Z,26.35
2022-09-15T13:25:02.087Z,26.41
2022-09-15T13:30:04.427Z,26.38
2022-09-15T13:35:35.801Z,26.31
2022-09-15T13:40:54.467Z,26.35
2022-09-15T13:46:08.783Z,26.48
2022-09-15T13:51:44.209Z,26.50
2022-09-15T13:56:41.976Z,26.42
2022-09-15T14:01:57.434Z,26.44
2022-09-15T14:06:57.178Z,26.56
2022-09-15T14:11:57.368Z,26.63
2022-09-15T14:16:52.019Z,26.64
2022-09-15T14:21:56.250Z,26.66
2022-09-15T14:26:52.019Z,26.70
2022-09-15T14:31:45.769Z,26.70
2022-09-15T14:36:40.085Z,26.62
2022-09-15T14:41:35.122Z,26.61
2022-09-15T14:46:37.212Z,26.76
2022-09-15T14:51:34.211Z,26.77
2022-09-15T14:56:51.099Z,26.76
2022-09-15T15:01:58.624Z,26.77
2022-09-15T15:07:10.233Z,26.78
2022-09-15T15:12:11.989Z,26.68
2022-09-15T15:17:07.145Z,26.81
2022-09-15T15:22:21.367Z,26.66
2022-09-15T15:27:41.784Z,26.75
2022-09-15T15:32:35.669Z,26.69
2022-09-15T15:37:34.687Z,26.76
2022-09-15T15:42:29.495Z,26.79
2022-09-15T15:47:21.817Z,26.80
2022-09-15T15:52:16.491Z,26.80
2022-09-15T15:57:25.191Z,26.83
2022-09-15T16:02:18.711Z,26.84
2022-09-15T16:07:23.897Z,26.73
2022-09-15T16:12:17.744Z,26.73
2022-09-15T16:17:11.644Z,26.85
2022-09-15T16:22:06.266Z,26.66
2022-09-15T16:27:01.076Z,26.75
2022-09-15T16:31:55.317Z,26.85
2022-09-15T16:36:49.564Z,26.72
2022-09-15T16:41:44.021Z,26.73
2022-09-15T16:46:37.735Z,26.85
2022-09-15T16:51:32.308Z,26.85
2022-09-15T16:56:26.392Z,26.75
2022-09-15T17:01:21.398Z,26.84
2022-09-15T17:06:18.459Z,26.75
2022-09-15T17:11:16.763Z,26.70
2022-09-15T17:16:11.741Z,26.86
2022-09-15T17:21:05.620Z,26.79
2022-09-15T17:26:00.918Z,26.81
2022-09-15T17:30:58.617Z,26.77
2022-09-15T17:35:52.531Z,26.80
2022-09-15T17:40:46.117Z,26.67
2022-09-15T17:45:40.157Z,26.71
2022-09-15T17:50:37.083Z,26.61
2022-09-15T17:55:34.068Z,26.65
2022-09-15T18:00:31.064Z,26.53
2022-09-15T18:05:28.772Z,26.77
2022-09-15T18:10:23.162Z,26.61
2022-09-15T18:15:23.096Z,26.66
2022-09-15T18:20:19.029Z,26.71
2022-09-15T18:25:31.463Z,26.83
2022-09-15T18:30:31.971Z,26.71
2022-09-15T18:35:25.145Z,26.81
2022-09-15T18:40:19.691Z,26.82
2022-09-15T18:45:16.309Z,26.79
2022-09-15T18:50:12.490Z,26.85
2022-09-15T18:55:08.483Z,26.90
2022-09-15T19:00:03.447Z,26.94
2022-09-15T19:04:57.875Z,26.79
2022-09-15T19:09:56.381Z,26.92
2022-09-15T19:14:51.231Z,27.07
2022-09-15T19:19:47.190Z,27.05
2022-09-15T19:24:40.160Z,27.01
2022-09-15T19:29:35.378Z,27.06
2022-09-15T19:34:28.068Z,26.96
2022-09-15T19:39:22.360Z,26.96
2022-09-15T19:44:17.016Z,26.94
2022-09-15T19:49:11.252Z,26.93
2022-09-15T19:54:06.269Z,26.95
2022-09-15T19:59:00.240Z,26.96
2022-09-15T20:03:59.627Z,26.77
2022-09-15T20:08:54.836Z,26.88
2022-09-15T20:13:48.816Z,26.93
2022-09-15T20:18:43.521Z,26.92
2022-09-15T20:23:37.233Z,26.89
2022-09-15T20:28:30.238Z,26.91
2022-09-15T20:33:27.181Z,26.91
2022-09-15T20:38:20.665Z,26.81
2022-09-15T20:43:15.507Z,26.88
2022-09-15T20:48:14.383Z,26.87
2022-09-15T20:53:09.060Z,26.90
2022-09-15T20:58:03.603Z,26.88
2022-09-15T21:02:57.148Z,26.72
2022-09-15T21:07:52.788Z,26.79
2022-09-15T21:12:47.045Z,26.88
2022-09-15T21:17:42.233Z,26.90
2022-09-15T21:22:36.921Z,26.80
2022-09-15T21:27:31.988Z,26.79
2022-09-15T21:32:26.445Z,26.78
2022-09-15T21:37:20.117Z,26.90
2022-09-15T21:42:14.344Z,26.80
2022-09-15T21:47:10.265Z,26.86
2022-09-15T21:52:07.893Z,26.89
2022-09-15T21:57:02.042Z,26.88
2022-09-15T22:01:56.561Z,26.88
2022-09-15T22:06:51.531Z,26.77
2022-09-15T22:11:45.749Z,26.85
2022-09-15T22:16:41.422Z,26.64
2022-09-15T22:21:38.108Z,26.64
2022-09-15T22:26:35.661Z,26.80
2022-09-15T22:31:30.786Z,26.73
2022-09-15T22:36:30.277Z,26.86
2022-09-15T22:41:26.580Z,26.86
2022-09-15T22:46:20.983Z,26.80
2022-09-15T22:51:15.413Z,26.81
2022-09-15T22:56:20.414Z,26.83
2022-09-15T23:01:17.137Z,26.71
2022-09-15T23:06:10.806Z,26.68
2022-09-15T23:11:12.746Z,26.74
2022-09-15T23:16:07.416Z,26.74
2022-09-15T23:21:03.722Z,26.75
2022-09-15T23:25:57.684Z,26.56
2022-09-15T23:30:55.753Z,26.77
2022-09-15T23:35:49.842Z,26.70
2022-09-15T23:40:47.550Z,26.60
2022-09-15T23:45:42.026Z,26.51
2022-09-15T23:50:37.012Z,26.66
2022-09-15T23:55:31.138Z,26.55
